No.11 Shigefukumaru — JD3995 — position and weather

sailwx.info

Track history (hours):
 
Tides and Currents Weather Stations Pressure Air Temp Water Temp Dewpoint Dewpoint Depression Visibility Wind Speed Wind Dir Waves Ship Positions

No.11 Shigefukumaru

Last reported at 2017-Dec-10 09:19 UTC. Time now 2017-Dec-11 02:00 UTC.
Position N 34°50' E 139°37'.

Length 60 m; draft 3.5 m.

Type: Tanker. MMSI: 431007738.

Date/timePositionNaut miles runAvg speedWind from/ knotsBaromVisibWave heightAir tempDewpointWater temp
2017-Dec-10 09:19N 34°50' E 139°37'311.1
2017-Dec-10 09:01N 34°50' E 139°33'711.5
2017-Dec-10 08:22N 34°49' E 139°24'612.5
2017-Dec-10 07:55N 34°47' E 139°18'513.1
2017-Dec-10 07:30N 34°44' E 139°12'712.8
2017-Dec-10 06:57N 34°40' E 139°05'511.5
2017-Dec-10 06:29N 34°37' E 139°00'612.2
2017-Dec-10 06:00N 34°35' E 138°53'611.6
2017-Dec-10 05:28N 34°35' E 138°46'511.6
2017-Dec-10 05:00N 34°34' E 138°39'612.1
2017-Dec-10 04:30N 34°33' E 138°32'611.7
2017-Dec-10 03:58N 34°33' E 138°24'711.7
2017-Dec-10 03:23N 34°32' E 138°16'166 9.4
2017-Dec-09 09:45N 33°52' E 135°01'311.7
2017-Dec-09 09:30N 33°55' E 134°59'611.8
2017-Dec-09 08:59N 33°59' E 134°54'611.9
2017-Dec-09 08:27N 34°04' E 134°49'511.9
2017-Dec-09 08:00N 34°08' E 134°45'612.2
2017-Dec-09 07:30N 34°13' E 134°40'612.2
2017-Dec-09 07:00N 34°17' E 134°34'27 1.1
2017-Dec-08 05:59N 34°27' E 134°04'1910.1
2017-Dec-08 04:08N 34°20' E 134°25'410.4
2017-Dec-08 03:43N 34°18' E 134°30'210.9
2017-Dec-08 03:30N 34°17' E 134°32'710.6
2017-Dec-08 02:48N 34°14' E 134°40'411.4
2017-Dec-08 02:27N 34°10' E 134°43'610.7
2017-Dec-08 01:53N 34°05' E 134°47'810.7
2017-Dec-08 01:08N 33°59' E 134°53'210.8
2017-Dec-08 00:56N 33°57' E 134°55'110 8.3
2017-Dec-07 11:37N 34°33' E 137°01'911.6
2017-Dec-07 10:52N 34°38' E 136°53'411.4
2017-Dec-07 10:30N 34°41' E 136°49'611.5
2017-Dec-07 10:00N 34°47' E 136°46'611.1
2017-Dec-07 09:31N 34°52' E 136°46'510.8
2017-Dec-07 09:00N 34°57' E 136°47'611.3
2017-Dec-07 08:31N 35°02' E 136°51'2 3.2
2017-Dec-07 07:59N 35°04' E 136°52'0 0.0
2017-Dec-07 07:29N 35°04' E 136°52'0 0.0
2017-Dec-07 06:56N 35°04' E 136°52'0 0.0
2017-Dec-07 06:30N 35°04' E 136°52'0 0.0
2017-Dec-07 06:00N 35°04' E 136°52'0 0.4
2017-Dec-07 05:30N 35°04' E 136°52'4 7.3
2017-Dec-07 05:00N 35°00' E 136°50'2 2.3
2017-Dec-07 04:10N 34°59' E 136°48'0 0.0
2017-Dec-07 03:58N 34°59' E 136°48'0 0.1
2017-Dec-07 03:28N 34°59' E 136°48'0 0.0
2017-Dec-07 02:58N 34°59' E 136°48'0 0.0
2017-Dec-07 02:28N 34°59' E 136°48'0 0.0
2017-Dec-07 01:55N 34°59' E 136°48'0 0.1
2017-Dec-07 01:22N 34°59' E 136°48'0 0.0
2017-Dec-07 00:58N 34°59' E 136°48'0 0.0
2017-Dec-07 00:28N 34°59' E 136°48'0 0.1
2017-Dec-06 23:58N 34°59' E 136°48'0 0.0
2017-Dec-06 23:28N 34°59' E 136°48'0 0.1
2017-Dec-06 22:55N 34°59' E 136°48'0 0.0
2017-Dec-06 22:28N 34°59' E 136°48'0 0.0
2017-Dec-06 21:49N 34°59' E 136°48'0 0.0
2017-Dec-06 21:28N 34°59' E 136°48'0 0.1
2017-Dec-06 20:58N 34°59' E 136°48'  
2017-Dec-03 22:52N 33°15' E 131°36'3 5.1
2017-Dec-03 22:15N 33°18' E 131°38'510.8
2017-Dec-03 21:50N 33°21' E 131°42'1 2.5
2017-Dec-03 21:30N 33°22' E 131°42'0 0.1
2017-Dec-03 20:51N 33°22' E 131°42'0 0.0
2017-Dec-03 20:27N 33°22' E 131°42'0 0.1
2017-Dec-03 20:00N 33°22' E 131°42'0 0.0
2017-Dec-03 18:09N 33°22' E 131°42'0 0.0
2017-Dec-03 17:51N 33°22' E 131°42'0 0.0
2017-Dec-03 15:39N 33°22' E 131°42'0 0.0
2017-Dec-03 15:14N 33°22' E 131°42'2 7.1
2017-Dec-03 15:00N 33°22' E 131°44'3911.4
2017-Dec-03 11:36N 33°44' E 132°23'210.3
2017-Dec-03 11:26N 33°45' E 132°25'610.5
2017-Dec-03 10:52N 33°49' E 132°30'510.1
2017-Dec-03 10:20N 33°53' E 132°35'4 9.7
2017-Dec-03 09:54N 33°56' E 132°39'4 9.3
2017-Dec-03 09:31N 33°58' E 132°42'  
2017-Dec-01 03:17N 34°03' E 132°43'310.7
2017-Dec-01 03:00N 34°02' E 132°40'8 9.7
2017-Dec-01 02:10N 33°57' E 132°32'410.0
2017-Dec-01 01:48N 33°54' E 132°28'710.3
2017-Dec-01 01:10N 33°50' E 132°22'210.6
2017-Dec-01 01:00N 33°50' E 132°20'611.4
2017-Dec-01 00:29N 33°50' E 132°13'611.1
2017-Nov-30 23:55N 33°47' E 132°06'410.3
2017-Nov-30 23:30N 33°46' E 132°01'811.8
2017-Nov-30 22:50N 33°52' E 131°54'411.7
2017-Nov-30 22:29N 33°54' E 131°51'611.6
2017-Nov-30 22:00N 33°58' E 131°45'5 9.4
2017-Nov-30 21:31N 34°02' E 131°48'  
Track history (hours):
 
Tides and Currents Weather Stations Pressure Air Temp Water Temp Dewpoint Dewpoint Depression Visibility Wind Speed Wind Dir Waves Ship Positions

No.11 Shigefukumaru

Last reported at 2017-Dec-10 09:19 UTC. Time now 2017-Dec-11 02:00 UTC.
Position N 34°50' E 139°37'.

Length 60 m; draft 3.5 m.

Type: Tanker. MMSI: 431007738.

Date/timePositionNaut miles runAvg speedWind from/ knotsBaromVisibWave heightAir tempDewpointWater temp
2017-Dec-10 09:19N 34°50' E 139°37'311.1
2017-Dec-10 09:01N 34°50' E 139°33'711.5
2017-Dec-10 08:22N 34°49' E 139°24'612.5
2017-Dec-10 07:55N 34°47' E 139°18'513.1
2017-Dec-10 07:30N 34°44' E 139°12'712.8
2017-Dec-10 06:57N 34°40' E 139°05'511.5
2017-Dec-10 06:29N 34°37' E 139°00'612.2
2017-Dec-10 06:00N 34°35' E 138°53'611.6
2017-Dec-10 05:28N 34°35' E 138°46'511.6
2017-Dec-10 05:00N 34°34' E 138°39'612.1
2017-Dec-10 04:30N 34°33' E 138°32'611.7
2017-Dec-10 03:58N 34°33' E 138°24'711.7
2017-Dec-10 03:23N 34°32' E 138°16'166 9.4
2017-Dec-09 09:45N 33°52' E 135°01'311.7
2017-Dec-09 09:30N 33°55' E 134°59'611.8
2017-Dec-09 08:59N 33°59' E 134°54'611.9
2017-Dec-09 08:27N 34°04' E 134°49'511.9
2017-Dec-09 08:00N 34°08' E 134°45'612.2
2017-Dec-09 07:30N 34°13' E 134°40'612.2
2017-Dec-09 07:00N 34°17' E 134°34'27 1.1
2017-Dec-08 05:59N 34°27' E 134°04'1910.1
2017-Dec-08 04:08N 34°20' E 134°25'410.4
2017-Dec-08 03:43N 34°18' E 134°30'210.9
2017-Dec-08 03:30N 34°17' E 134°32'710.6
2017-Dec-08 02:48N 34°14' E 134°40'411.4
2017-Dec-08 02:27N 34°10' E 134°43'610.7
2017-Dec-08 01:53N 34°05' E 134°47'810.7
2017-Dec-08 01:08N 33°59' E 134°53'210.8
2017-Dec-08 00:56N 33°57' E 134°55'110 8.3
2017-Dec-07 11:37N 34°33' E 137°01'911.6
2017-Dec-07 10:52N 34°38' E 136°53'411.4
2017-Dec-07 10:30N 34°41' E 136°49'611.5
2017-Dec-07 10:00N 34°47' E 136°46'611.1
2017-Dec-07 09:31N 34°52' E 136°46'510.8
2017-Dec-07 09:00N 34°57' E 136°47'611.3
2017-Dec-07 08:31N 35°02' E 136°51'2 3.2
2017-Dec-07 07:59N 35°04' E 136°52'0 0.0
2017-Dec-07 07:29N 35°04' E 136°52'0 0.0
2017-Dec-07 06:56N 35°04' E 136°52'0 0.0
2017-Dec-07 06:30N 35°04' E 136°52'0 0.0
2017-Dec-07 06:00N 35°04' E 136°52'0 0.4
2017-Dec-07 05:30N 35°04' E 136°52'4 7.3
2017-Dec-07 05:00N 35°00' E 136°50'2 2.3
2017-Dec-07 04:10N 34°59' E 136°48'0 0.0
2017-Dec-07 03:58N 34°59' E 136°48'0 0.1
2017-Dec-07 03:28N 34°59' E 136°48'0 0.0
2017-Dec-07 02:58N 34°59' E 136°48'0 0.0
2017-Dec-07 02:28N 34°59' E 136°48'0 0.0
2017-Dec-07 01:55N 34°59' E 136°48'0 0.1
2017-Dec-07 01:22N 34°59' E 136°48'0 0.0
2017-Dec-07 00:58N 34°59' E 136°48'0 0.0
2017-Dec-07 00:28N 34°59' E 136°48'0 0.1
2017-Dec-06 23:58N 34°59' E 136°48'0 0.0
2017-Dec-06 23:28N 34°59' E 136°48'0 0.1
2017-Dec-06 22:55N 34°59' E 136°48'0 0.0
2017-Dec-06 22:28N 34°59' E 136°48'0 0.0
2017-Dec-06 21:49N 34°59' E 136°48'0 0.0
2017-Dec-06 21:28N 34°59' E 136°48'0 0.1
2017-Dec-06 20:58N 34°59' E 136°48'  
2017-Dec-03 22:52N 33°15' E 131°36'3 5.1
2017-Dec-03 22:15N 33°18' E 131°38'510.8
2017-Dec-03 21:50N 33°21' E 131°42'1 2.5
2017-Dec-03 21:30N 33°22' E 131°42'0 0.1
2017-Dec-03 20:51N 33°22' E 131°42'0 0.0
2017-Dec-03 20:27N 33°22' E 131°42'0 0.1
2017-Dec-03 20:00N 33°22' E 131°42'0 0.0
2017-Dec-03 18:09N 33°22' E 131°42'0 0.0
2017-Dec-03 17:51N 33°22' E 131°42'0 0.0
2017-Dec-03 15:39N 33°22' E 131°42'0 0.0
2017-Dec-03 15:14N 33°22' E 131°42'2 7.1
2017-Dec-03 15:00N 33°22' E 131°44'3911.4
2017-Dec-03 11:36N 33°44' E 132°23'210.3
2017-Dec-03 11:26N 33°45' E 132°25'610.5
2017-Dec-03 10:52N 33°49' E 132°30'510.1
2017-Dec-03 10:20N 33°53' E 132°35'4 9.7
2017-Dec-03 09:54N 33°56' E 132°39'4 9.3
2017-Dec-03 09:31N 33°58' E 132°42'  
2017-Dec-01 03:17N 34°03' E 132°43'310.7
2017-Dec-01 03:00N 34°02' E 132°40'8 9.7
2017-Dec-01 02:10N 33°57' E 132°32'410.0
2017-Dec-01 01:48N 33°54' E 132°28'710.3
2017-Dec-01 01:10N 33°50' E 132°22'210.6
2017-Dec-01 01:00N 33°50' E 132°20'611.4
2017-Dec-01 00:29N 33°50' E 132°13'611.1
2017-Nov-30 23:55N 33°47' E 132°06'410.3
2017-Nov-30 23:30N 33°46' E 132°01'811.8
2017-Nov-30 22:50N 33°52' E 131°54'411.7
2017-Nov-30 22:29N 33°54' E 131°51'611.6
2017-Nov-30 22:00N 33°58' E 131°45'5 9.4
2017-Nov-30 21:31N 34°02' E 131°48'  

Dump ship's entire track history